createdAt,value
2017-09-15T00:00:53.160Z,995.91
2017-09-15T00:01:53.136Z,995.85
2017-09-15T00:02:53.135Z,995.90
2017-09-15T00:03:53.110Z,995.84
2017-09-15T00:04:53.146Z,995.88
2017-09-15T00:05:53.083Z,995.90
2017-09-15T00:06:53.084Z,995.87
2017-09-15T00:07:53.071Z,995.87
2017-09-15T00:08:53.388Z,995.87
2017-09-15T00:09:53.046Z,995.89
2017-09-15T00:10:53.023Z,995.92
2017-09-15T00:11:53.028Z,995.91
2017-09-15T00:12:53.000Z,995.94
2017-09-15T00:13:52.981Z,996.00
2017-09-15T00:14:53.277Z,995.95
2017-09-15T00:15:52.971Z,996.02
2017-09-15T00:16:52.946Z,996.02
2017-09-15T00:17:52.945Z,996.04
2017-09-15T00:18:52.919Z,996.05
2017-09-15T00:19:52.920Z,996.05
2017-09-15T00:20:52.926Z,996.03
2017-09-15T00:21:52.898Z,996.08
2017-09-15T00:22:52.871Z,996.10
2017-09-15T00:23:52.870Z,996.09
2017-09-15T00:24:52.848Z,996.09
2017-09-15T00:25:52.881Z,996.11
2017-09-15T00:26:52.824Z,996.14
2017-09-15T00:27:52.815Z,996.15
2017-09-15T00:28:52.797Z,996.19
2017-09-15T00:29:52.802Z,996.22
2017-09-15T00:30:53.180Z,996.24
2017-09-15T00:31:52.775Z,996.25
2017-09-15T00:32:52.763Z,996.22
2017-09-15T00:33:52.747Z,996.25
2017-09-15T00:34:52.740Z,996.25
2017-09-15T00:35:52.717Z,996.24
2017-09-15T00:36:53.053Z,996.26
2017-09-15T00:37:52.694Z,996.25
2017-09-15T00:38:52.680Z,996.30
2017-09-15T00:39:52.664Z,996.31
2017-09-15T00:40:52.651Z,996.28
2017-09-15T00:41:52.651Z,996.32
2017-09-15T00:42:52.944Z,996.30
2017-09-15T00:43:52.623Z,996.30
2017-09-15T00:44:52.601Z,996.32
2017-09-15T00:45:52.600Z,996.29
2017-09-15T00:46:52.578Z,996.31
2017-09-15T00:47:52.906Z,996.33
2017-09-15T00:48:52.556Z,996.32
2017-09-15T00:49:52.538Z,996.33
2017-09-15T00:50:52.538Z,996.33
2017-09-15T00:51:52.512Z,996.32
2017-09-15T00:52:52.505Z,996.32
2017-09-15T00:53:52.522Z,996.34
2017-09-15T00:54:52.497Z,996.33
2017-09-15T00:55:52.467Z,996.39
2017-09-15T00:56:52.455Z,996.43
2017-09-15T00:57:52.443Z,996.41
2017-09-15T00:58:52.733Z,996.42
2017-09-15T00:59:52.415Z,996.44
2017-09-15T01:00:52.405Z,996.44
2017-09-15T01:01:52.391Z,996.49
2017-09-15T01:02:52.380Z,996.47
2017-09-15T01:03:52.371Z,996.47
2017-09-15T01:04:52.717Z,996.46
2017-09-15T01:05:52.345Z,996.42
2017-09-15T01:06:52.335Z,996.45
2017-09-15T01:07:52.313Z,996.47
2017-09-15T01:08:52.302Z,996.48
2017-09-15T01:09:52.290Z,996.49
2017-09-15T01:10:52.592Z,996.51
2017-09-15T01:11:52.271Z,996.52
2017-09-15T01:12:52.249Z,996.48
2017-09-15T01:13:52.239Z,996.46
2017-09-15T01:14:52.230Z,996.46
2017-09-15T01:15:52.213Z,996.46
2017-09-15T01:16:52.559Z,996.47
2017-09-15T01:17:52.207Z,996.46
2017-09-15T01:18:52.184Z,996.52
2017-09-15T01:19:52.163Z,996.52
2017-09-15T01:20:52.155Z,996.52
2017-09-15T01:21:52.141Z,996.53
2017-09-15T01:22:52.567Z,996.52
2017-09-15T01:23:52.117Z,996.52
2017-09-15T01:24:52.108Z,996.51
2017-09-15T01:25:52.090Z,996.55
2017-09-15T01:26:52.079Z,996.60
2017-09-15T01:27:52.069Z,996.62
2017-09-15T01:28:52.079Z,996.67
2017-09-15T01:29:52.056Z,996.65
2017-09-15T01:30:52.028Z,996.68
2017-09-15T01:31:52.017Z,996.68
2017-09-15T01:32:52.006Z,996.65
2017-09-15T01:33:52.197Z,996.70
2017-09-15T01:34:51.982Z,996.65
2017-09-15T01:35:51.967Z,996.72
2017-09-15T01:36:51.952Z,996.73
2017-09-15T01:37:51.952Z,996.74
2017-09-15T01:38:51.929Z,996.73
2017-09-15T01:39:51.953Z,996.72
2017-09-15T01:40:51.907Z,996.73
2017-09-15T01:41:51.893Z,996.77
2017-09-15T01:42:51.877Z,996.76
2017-09-15T01:43:51.879Z,996.76
2017-09-15T01:44:51.854Z,996.80
2017-09-15T01:45:52.161Z,996.81
2017-09-15T01:46:51.824Z,996.80
2017-09-15T01:47:51.814Z,996.82
2017-09-15T01:48:51.802Z,996.84
2017-09-15T01:49:51.789Z,996.86
2017-09-15T01:50:51.778Z,996.84
2017-09-15T01:51:51.794Z,996.81
2017-09-15T01:52:51.757Z,996.88
2017-09-15T01:53:51.742Z,996.88
2017-09-15T01:54:51.725Z,996.89
2017-09-15T01:55:51.722Z,996.87
2017-09-15T01:56:52.157Z,996.87
2017-09-15T01:57:51.691Z,996.87
2017-09-15T01:58:51.678Z,996.90
2017-09-15T01:59:51.661Z,996.90
2017-09-15T02:00:51.653Z,996.90
2017-09-15T02:01:51.638Z,996.89
2017-09-15T02:02:52.074Z,996.89
2017-09-15T02:03:51.615Z,996.93
2017-09-15T02:04:51.606Z,996.94
2017-09-15T02:05:51.590Z,996.96
2017-09-15T02:06:51.591Z,997.01
2017-09-15T02:07:51.560Z,996.94
2017-09-15T02:08:51.889Z,996.96
2017-09-15T02:09:51.539Z,996.95
2017-09-15T02:10:51.549Z,997.01
2017-09-15T02:11:51.518Z,996.99
2017-09-15T02:12:51.496Z,996.98
2017-09-15T02:13:51.493Z,996.95
2017-09-15T02:14:51.501Z,996.94
2017-09-15T02:15:51.466Z,996.97
2017-09-15T02:16:51.451Z,996.95
2017-09-15T02:17:51.442Z,996.95
2017-09-15T02:18:51.424Z,996.94
2017-09-15T02:19:51.457Z,996.94
2017-09-15T02:20:51.406Z,996.97
2017-09-15T02:21:51.388Z,996.98
2017-09-15T02:22:51.377Z,996.94
2017-09-15T02:23:51.362Z,996.96
2017-09-15T02:24:51.471Z,996.98
2017-09-15T02:25:51.340Z,996.98
2017-09-15T02:26:51.329Z,997.00
2017-09-15T02:27:51.316Z,996.95
2017-09-15T02:28:51.295Z,997.02
2017-09-15T02:29:51.289Z,997.00
2017-09-15T02:30:51.303Z,997.01
2017-09-15T02:31:51.264Z,996.99
2017-09-15T02:32:51.244Z,996.98
2017-09-15T02:33:51.237Z,996.94
2017-09-15T02:34:51.593Z,997.01
2017-09-15T02:35:51.219Z,996.97
2017-09-15T02:36:51.194Z,996.98
2017-09-15T02:37:51.220Z,996.96
2017-09-15T02:38:51.168Z,997.02
2017-09-15T02:39:51.164Z,997.00
2017-09-15T02:40:51.186Z,997.01
2017-09-15T02:41:51.132Z,997.03
2017-09-15T02:42:51.120Z,997.02
2017-09-15T02:43:51.112Z,997.06
2017-09-15T02:44:51.457Z,997.05
2017-09-15T02:45:51.085Z,997.05
2017-09-15T02:46:51.069Z,997.05
2017-09-15T02:47:51.056Z,997.03
2017-09-15T02:48:51.047Z,997.04
2017-09-15T02:49:51.031Z,997.09
2017-09-15T02:50:51.473Z,997.10
2017-09-15T02:51:51.007Z,997.07
2017-09-15T02:52:50.992Z,997.08
2017-09-15T02:53:50.978Z,997.10
2017-09-15T02:54:50.972Z,997.12
2017-09-15T02:55:50.955Z,997.13
2017-09-15T02:56:50.980Z,997.11
2017-09-15T02:57:50.928Z,997.09
2017-09-15T02:58:50.917Z,997.11
2017-09-15T02:59:50.906Z,997.13
2017-09-15T03:00:50.912Z,997.11
2017-09-15T03:01:50.881Z,997.13
2017-09-15T03:02:51.161Z,997.09
2017-09-15T03:03:50.860Z,997.12
2017-09-15T03:04:50.845Z,997.11
2017-09-15T03:05:50.843Z,997.10
2017-09-15T03:06:50.819Z,997.12
2017-09-15T03:07:50.801Z,997.16
2017-09-15T03:08:51.131Z,997.12
2017-09-15T03:09:50.780Z,997.12
2017-09-15T03:10:50.772Z,997.08
2017-09-15T03:11:50.757Z,997.11
2017-09-15T03:12:50.746Z,997.11
2017-09-15T03:13:50.731Z,997.13
2017-09-15T03:14:51.019Z,997.15
2017-09-15T03:15:50.707Z,997.15
2017-09-15T03:16:50.696Z,997.12
2017-09-15T03:17:50.679Z,997.13
2017-09-15T03:18:50.672Z,997.17
2017-09-15T03:19:50.654Z,997.15
2017-09-15T03:20:50.665Z,997.13
2017-09-15T03:21:50.638Z,997.20
2017-09-15T03:22:50.614Z,997.15
2017-09-15T03:23:50.602Z,997.17
2017-09-15T03:24:50.589Z,997.19
2017-09-15T03:25:50.616Z,997.15
2017-09-15T03:26:50.564Z,997.12
2017-09-15T03:27:50.554Z,997.13
2017-09-15T03:28:50.537Z,997.16
2017-09-15T03:29:50.528Z,997.09
2017-09-15T03:30:50.856Z,997.13
2017-09-15T03:31:50.500Z,997.13
2017-09-15T03:32:50.485Z,997.11
2017-09-15T03:33:50.477Z,997.11
2017-09-15T03:34:50.464Z,997.13
2017-09-15T03:35:50.452Z,997.12
2017-09-15T03:36:50.492Z,997.09
2017-09-15T03:37:50.424Z,997.15
2017-09-15T03:38:50.418Z,997.10
2017-09-15T03:39:50.397Z,997.14
2017-09-15T03:40:50.389Z,997.11
2017-09-15T03:41:50.405Z,997.07
2017-09-15T03:42:50.363Z,997.09
2017-09-15T03:43:50.349Z,997.08
2017-09-15T03:44:50.339Z,997.07
2017-09-15T03:45:50.759Z,997.10
2017-09-15T03:46:50.317Z,997.12
2017-09-15T03:47:50.317Z,997.11
2017-09-15T03:48:50.288Z,997.13
2017-09-15T03:49:50.273Z,997.11
2017-09-15T03:50:50.258Z,997.12
2017-09-15T03:51:50.277Z,997.15
2017-09-15T03:52:50.237Z,997.13
2017-09-15T03:53:50.222Z,997.12
2017-09-15T03:54:50.213Z,997.18
2017-09-15T03:55:50.239Z,997.14
2017-09-15T03:56:50.189Z,997.14
2017-09-15T03:57:50.182Z,997.15
2017-09-15T03:58:50.161Z,997.13
2017-09-15T03:59:50.151Z,997.14
2017-09-15T04:00:50.461Z,997.15
2017-09-15T04:01:50.124Z,997.16
2017-09-15T04:02:50.109Z,997.13
2017-09-15T04:03:50.101Z,997.15
2017-09-15T04:04:50.083Z,997.10
2017-09-15T04:05:50.069Z,997.13
2017-09-15T04:06:50.287Z,997.13
2017-09-15T04:07:50.046Z,997.09
2017-09-15T04:08:50.035Z,997.08
2017-09-15T04:09:50.022Z,997.07
2017-09-15T04:10:50.008Z,997.03
2017-09-15T04:11:50.000Z,997.10
2017-09-15T04:12:50.325Z,997.08
2017-09-15T04:13:49.973Z,997.08
2017-09-15T04:14:49.957Z,997.12
2017-09-15T04:15:49.944Z,997.14
2017-09-15T04:16:49.931Z,997.11
2017-09-15T04:17:49.929Z,997.12
2017-09-15T04:18:49.946Z,997.11
2017-09-15T04:19:49.912Z,997.17
2017-09-15T04:20:49.879Z,997.11
2017-09-15T04:21:49.871Z,997.10
2017-09-15T04:22:49.862Z,997.13
2017-09-15T04:23:50.263Z,997.11
2017-09-15T04:24:49.841Z,997.07
2017-09-15T04:25:49.816Z,997.13
2017-09-15T04:26:49.810Z,997.20
2017-09-15T04:27:49.788Z,997.24
2017-09-15T04:28:49.785Z,997.21
2017-09-15T04:29:50.001Z,997.12
2017-09-15T04:30:49.758Z,997.15
2017-09-15T04:31:49.742Z,997.11
2017-09-15T04:32:49.735Z,997.19
2017-09-15T04:33:49.718Z,997.20
2017-09-15T04:34:49.701Z,997.17
2017-09-15T04:35:50.036Z,997.16
2017-09-15T04:36:49.681Z,997.19
2017-09-15T04:37:49.668Z,997.21
2017-09-15T04:38:49.654Z,997.15
2017-09-15T04:39:49.638Z,997.18
2017-09-15T04:40:49.627Z,997.18
2017-09-15T04:41:49.644Z,997.21
2017-09-15T04:42:49.621Z,997.15
2017-09-15T04:43:49.590Z,997.22
2017-09-15T04:44:49.625Z,997.20
2017-09-15T04:45:49.571Z,997.12
2017-09-15T04:46:49.554Z,997.18
2017-09-15T04:47:49.541Z,997.16
2017-09-15T04:48:49.527Z,997.14
2017-09-15T04:49:49.958Z,997.19
2017-09-15T04:50:49.515Z,997.22
2017-09-15T04:51:49.493Z,997.24
2017-09-15T04:52:49.479Z,997.22
2017-09-15T04:53:49.461Z,997.21
2017-09-15T04:54:49.446Z,997.28
2017-09-15T04:55:49.463Z,997.24
2017-09-15T04:56:49.421Z,997.23
2017-09-15T04:57:49.410Z,997.18
2017-09-15T04:58:49.397Z,997.21
2017-09-15T04:59:49.381Z,997.21
2017-09-15T05:00:49.507Z,997.27
2017-09-15T05:01:49.362Z,997.28
2017-09-15T05:02:49.349Z,997.24
2017-09-15T05:03:49.339Z,997.28
2017-09-15T05:04:49.321Z,997.18
2017-09-15T05:05:49.313Z,997.30
2017-09-15T05:06:49.606Z,997.26
2017-09-15T05:07:49.284Z,997.32
2017-09-15T05:08:49.278Z,997.34
2017-09-15T05:09:49.255Z,997.38
2017-09-15T05:10:49.242Z,997.37
2017-09-15T05:11:49.233Z,997.35
2017-09-15T05:12:49.242Z,997.37
2017-09-15T05:13:49.208Z,997.41
2017-09-15T05:14:49.196Z,997.41
2017-09-15T05:15:49.192Z,997.44
2017-09-15T05:16:49.165Z,997.45
2017-09-15T05:17:49.192Z,997.45
2017-09-15T05:18:49.484Z,997.49
2017-09-15T05:19:49.137Z,997.47
2017-09-15T05:20:49.116Z,997.46
2017-09-15T05:21:49.119Z,997.48
2017-09-15T05:22:49.096Z,997.49
2017-09-15T05:23:49.081Z,997.47
2017-09-15T05:24:49.497Z,997.46
2017-09-15T05:25:49.051Z,997.40
2017-09-15T05:26:49.042Z,997.42
2017-09-15T05:27:49.027Z,997.39
2017-09-15T05:28:49.016Z,997.37
2017-09-15T05:29:49.007Z,997.35
2017-09-15T05:30:49.211Z,997.35
2017-09-15T05:31:48.982Z,997.34
2017-09-15T05:32:48.969Z,997.32
2017-09-15T05:33:48.958Z,997.35
2017-09-15T05:34:48.942Z,997.36
2017-09-15T05:35:48.924Z,997.36
2017-09-15T05:36:48.955Z,997.35
2017-09-15T05:37:48.933Z,997.39
2017-09-15T05:38:49.198Z,997.39
2017-09-15T05:39:48.877Z,997.36
2017-09-15T05:40:48.862Z,997.33
2017-09-15T05:41:48.856Z,997.36
2017-09-15T05:42:48.841Z,997.39
2017-09-15T05:43:48.830Z,997.30
2017-09-15T05:44:48.846Z,997.40
2017-09-15T05:45:48.800Z,997.38
2017-09-15T05:46:48.792Z,997.39
2017-09-15T05:47:48.775Z,997.36
2017-09-15T05:48:49.195Z,997.33
2017-09-15T05:49:48.747Z,997.36
2017-09-15T05:50:48.741Z,997.37
2017-09-15T05:51:48.730Z,997.34
2017-09-15T05:52:48.710Z,997.31
2017-09-15T05:53:48.696Z,997.30
2017-09-15T05:54:48.991Z,997.33
2017-09-15T05:55:48.671Z,997.34
2017-09-15T05:56:48.669Z,997.33
2017-09-15T05:57:48.648Z,997.31
2017-09-15T05:58:48.635Z,997.36
2017-09-15T05:59:48.636Z,997.36
2017-09-15T06:00:48.972Z,997.35
2017-09-15T06:01:48.601Z,997.35
2017-09-15T06:02:48.582Z,997.32
2017-09-15T06:03:48.569Z,997.35
2017-09-15T06:04:48.561Z,997.35
2017-09-15T06:05:48.549Z,997.35
2017-09-15T06:06:48.841Z,997.39
2017-09-15T06:07:48.524Z,997.31
2017-09-15T06:08:48.517Z,997.39
2017-09-15T06:09:48.506Z,997.36
2017-09-15T06:10:48.494Z,997.36
2017-09-15T06:11:48.477Z,997.34
2017-09-15T06:12:48.808Z,997.41
2017-09-15T06:13:48.452Z,997.47
2017-09-15T06:14:48.431Z,997.34
2017-09-15T06:15:48.423Z,997.35
2017-09-15T06:16:48.417Z,997.35
2017-09-15T06:17:48.402Z,997.35
2017-09-15T06:18:48.425Z,997.31
2017-09-15T06:19:48.368Z,997.35
2017-09-15T06:20:48.361Z,997.33
2017-09-15T06:21:48.348Z,997.37
2017-09-15T06:22:48.754Z,997.36
2017-09-15T06:23:48.318Z,997.35
2017-09-15T06:24:48.313Z,997.33
2017-09-15T06:25:48.295Z,997.36
2017-09-15T06:26:48.280Z,997.41
2017-09-15T06:27:48.269Z,997.39
2017-09-15T06:28:48.293Z,997.34
2017-09-15T06:29:48.240Z,997.39
2017-09-15T06:30:48.242Z,997.37
2017-09-15T06:31:48.214Z,997.37
2017-09-15T06:32:48.205Z,997.29
2017-09-15T06:33:48.625Z,997.39
2017-09-15T06:34:48.181Z,997.40
2017-09-15T06:35:48.168Z,997.39
2017-09-15T06:36:48.156Z,997.38
2017-09-15T06:37:48.147Z,997.36
2017-09-15T06:38:48.138Z,997.37
2017-09-15T06:39:48.147Z,997.34
2017-09-15T06:40:48.112Z,997.35
2017-09-15T06:41:48.097Z,997.41
2017-09-15T06:42:48.083Z,997.41
2017-09-15T06:43:48.491Z,997.39
2017-09-15T06:44:48.064Z,997.39
2017-09-15T06:45:48.045Z,997.34
2017-09-15T06:46:48.031Z,997.35
2017-09-15T06:47:48.018Z,997.38
2017-09-15T06:48:48.011Z,997.41
2017-09-15T06:49:48.039Z,997.40
2017-09-15T06:50:47.981Z,997.47
2017-09-15T06:51:47.970Z,997.40
2017-09-15T06:52:47.960Z,997.45
2017-09-15T06:53:47.944Z,997.40
2017-09-15T06:54:47.931Z,997.39
2017-09-15T06:55:48.127Z,997.36
2017-09-15T06:56:47.905Z,997.34
2017-09-15T06:57:47.902Z,997.34
2017-09-15T06:58:47.882Z,997.37
2017-09-15T06:59:47.874Z,997.37
2017-09-15T07:00:47.853Z,997.36
2017-09-15T07:01:47.876Z,997.36
2017-09-15T07:02:47.834Z,997.34
2017-09-15T07:03:47.822Z,997.34
2017-09-15T07:04:47.802Z,997.38
2017-09-15T07:05:47.800Z,997.36
2017-09-15T07:06:47.822Z,997.36
2017-09-15T07:07:47.772Z,997.37
2017-09-15T07:08:47.755Z,997.36
2017-09-15T07:09:47.750Z,997.35
2017-09-15T07:10:47.729Z,997.38
2017-09-15T07:11:47.943Z,997.36
2017-09-15T07:12:47.707Z,997.42
2017-09-15T07:13:47.692Z,997.38
2017-09-15T07:14:47.685Z,997.37
2017-09-15T07:15:47.666Z,997.37
2017-09-15T07:16:47.659Z,997.43
2017-09-15T07:17:47.954Z,997.43
2017-09-15T07:18:47.638Z,997.47
2017-09-15T07:19:47.619Z,997.44
2017-09-15T07:20:47.601Z,997.44
2017-09-15T07:21:47.599Z,997.46
2017-09-15T07:22:47.586Z,997.46
2017-09-15T07:23:47.603Z,997.49
2017-09-15T07:24:47.557Z,997.47
2017-09-15T07:25:47.552Z,997.45
2017-09-15T07:26:47.536Z,997.51
2017-09-15T07:27:47.528Z,997.52
2017-09-15T07:28:47.546Z,997.53
2017-09-15T07:29:47.499Z,997.50
2017-09-15T07:30:47.484Z,997.55
2017-09-15T07:31:47.471Z,997.60
2017-09-15T07:32:47.464Z,997.60
2017-09-15T07:33:47.452Z,997.62
2017-09-15T07:34:47.547Z,997.63
2017-09-15T07:35:47.423Z,997.61
2017-09-15T07:36:47.416Z,997.65
2017-09-15T07:37:47.401Z,997.65
2017-09-15T07:38:47.387Z,997.62
2017-09-15T07:39:47.382Z,997.67
2017-09-15T07:40:47.702Z,997.68
2017-09-15T07:41:47.352Z,997.68
2017-09-15T07:42:47.338Z,997.69
2017-09-15T07:43:47.328Z,997.68
2017-09-15T07:44:47.312Z,997.74
2017-09-15T07:45:47.307Z,997.70
2017-09-15T07:46:47.655Z,997.69
2017-09-15T07:47:47.277Z,997.71
2017-09-15T07:48:47.262Z,997.74
2017-09-15T07:49:47.285Z,997.75
2017-09-15T07:50:47.241Z,997.71
2017-09-15T07:51:47.232Z,997.75
2017-09-15T07:52:47.250Z,997.73
2017-09-15T07:53:47.215Z,997.75
2017-09-15T07:54:47.640Z,997.74
2017-09-15T07:55:47.179Z,997.73
2017-09-15T07:56:47.167Z,997.80
2017-09-15T07:57:47.153Z,997.80
2017-09-15T07:58:47.145Z,997.85
2017-09-15T07:59:47.139Z,997.84
2017-09-15T08:00:49.518Z,997.76
2017-09-15T08:01:49.046Z,997.81
2017-09-15T08:02:47.139Z,997.83
2017-09-15T08:03:47.086Z,997.85
2017-09-15T08:04:47.092Z,997.89
2017-09-15T08:05:47.072Z,997.87
2017-09-15T08:06:47.440Z,997.93
2017-09-15T08:07:47.048Z,997.92
2017-09-15T08:08:47.828Z,997.93
2017-09-15T08:09:47.027Z,997.94
2017-09-15T08:10:47.171Z,997.95
2017-09-15T08:14:58.256Z,997.93
2017-09-15T08:15:29.126Z,997.96
2017-09-15T08:16:26.057Z,997.95
2017-09-15T08:17:26.200Z,997.96
2017-09-15T08:18:58.053Z,997.95
2017-09-15T08:19:26.349Z,998.00
2017-09-15T08:20:26.012Z,997.99
2017-09-15T08:21:26.678Z,997.99
2017-09-15T08:22:25.978Z,998.08
2017-09-15T08:23:25.979Z,998.06
2017-09-15T08:24:25.956Z,998.08
2017-09-15T08:25:26.335Z,998.05
2017-09-15T08:26:25.938Z,998.06
2017-09-15T08:27:25.925Z,998.13
2017-09-15T08:28:25.908Z,998.09
2017-09-15T08:29:25.897Z,998.08
2017-09-15T08:30:25.885Z,998.08
2017-09-15T08:31:26.310Z,998.08
2017-09-15T08:32:25.861Z,998.05
2017-09-15T08:33:25.849Z,998.01
2017-09-15T08:34:25.844Z,998.02
2017-09-15T08:35:25.841Z,998.05
2017-09-15T08:36:25.832Z,998.03
2017-09-15T08:37:26.125Z,998.05
2017-09-15T08:38:25.785Z,998.05
2017-09-15T08:39:25.775Z,998.06
2017-09-15T08:40:25.767Z,998.08
2017-09-15T08:41:25.752Z,998.07
2017-09-15T08:42:25.740Z,998.08
2017-09-15T08:43:26.057Z,998.11
2017-09-15T08:44:25.729Z,998.07
2017-09-15T08:45:25.716Z,998.07
2017-09-15T08:46:25.689Z,998.05
2017-09-15T08:47:25.694Z,998.03
2017-09-15T08:48:25.673Z,998.05
2017-09-15T08:49:25.702Z,998.08
2017-09-15T08:50:25.647Z,998.07
2017-09-15T08:51:25.646Z,998.05
2017-09-15T08:52:25.629Z,998.07
2017-09-15T08:53:25.619Z,998.08
2017-09-15T08:54:25.956Z,998.03
2017-09-15T08:55:25.589Z,998.04
2017-09-15T08:56:25.579Z,998.08
2017-09-15T08:57:25.564Z,998.08
2017-09-15T08:58:25.555Z,998.05
2017-09-15T08:59:25.545Z,998.05
2017-09-15T09:00:25.975Z,998.05
2017-09-15T09:01:25.518Z,998.01
2017-09-15T09:02:25.509Z,998.04
2017-09-15T09:03:25.493Z,998.05
2017-09-15T09:04:25.492Z,998.07
2017-09-15T09:05:25.491Z,998.03
2017-09-15T09:06:25.851Z,998.05
2017-09-15T09:07:25.449Z,998.04
2017-09-15T09:08:25.445Z,997.98
2017-09-15T09:09:25.421Z,998.02
2017-09-15T09:10:25.420Z,997.99
2017-09-15T09:11:25.403Z,998.00
2017-09-15T09:12:25.695Z,997.92
2017-09-15T09:13:25.418Z,997.94
2017-09-15T09:14:25.369Z,998.02
2017-09-15T09:15:25.350Z,998.01
2017-09-15T09:16:25.360Z,997.99
2017-09-15T09:17:25.343Z,998.02
2017-09-15T09:18:25.622Z,997.99
2017-09-15T09:19:25.306Z,997.97
2017-09-15T09:20:25.296Z,998.00
2017-09-15T09:21:25.294Z,997.93
2017-09-15T09:22:25.270Z,997.97
2017-09-15T09:23:25.389Z,997.93
2017-09-15T09:24:25.488Z,997.91
2017-09-15T09:25:25.234Z,997.91
2017-09-15T09:26:25.223Z,997.95
2017-09-15T09:27:25.214Z,997.94
2017-09-15T09:28:25.817Z,997.90
2017-09-15T09:29:25.187Z,997.93
2017-09-15T09:30:25.204Z,997.92
2017-09-15T09:31:25.174Z,997.89
2017-09-15T09:32:25.377Z,997.89
2017-09-15T09:33:25.169Z,997.93
2017-09-15T09:34:25.137Z,997.93
2017-09-15T09:35:25.121Z,997.96
2017-09-15T09:36:25.117Z,997.91
2017-09-15T09:37:25.094Z,997.90
2017-09-15T09:38:25.512Z,997.86
2017-09-15T09:39:25.072Z,997.87
2017-09-15T09:40:25.054Z,997.85
2017-09-15T09:41:25.053Z,997.83
2017-09-15T09:42:25.037Z,997.84
2017-09-15T09:43:25.028Z,997.84
2017-09-15T09:44:25.286Z,997.78
2017-09-15T09:45:25.004Z,997.81
2017-09-15T09:46:24.992Z,997.81
2017-09-15T09:47:24.980Z,997.73
2017-09-15T09:48:24.969Z,997.72
2017-09-15T09:49:25.349Z,997.71
2017-09-15T09:50:24.939Z,997.78
2017-09-15T09:51:24.930Z,997.81
2017-09-15T09:52:24.920Z,997.85
2017-09-15T09:53:24.907Z,997.81
2017-09-15T09:54:24.898Z,997.75
2017-09-15T09:55:24.929Z,997.78
2017-09-15T09:56:24.877Z,997.77
2017-09-15T09:57:24.874Z,997.79
2017-09-15T09:58:25.162Z,997.72
2017-09-15T09:59:24.844Z,997.72
2017-09-15T10:00:24.827Z,997.69
2017-09-15T10:01:24.826Z,997.75
2017-09-15T10:02:24.831Z,997.68
2017-09-15T10:03:24.791Z,997.68
2017-09-15T10:04:25.088Z,997.67
2017-09-15T10:05:24.772Z,997.71
2017-09-15T10:06:24.765Z,997.72
2017-09-15T10:07:24.749Z,997.70
2017-09-15T10:08:24.748Z,997.75
2017-09-15T10:09:24.934Z,997.76
2017-09-15T10:10:25.061Z,997.66
2017-09-15T10:11:24.806Z,997.77
2017-09-15T10:12:24.838Z,997.71
2017-09-15T10:13:25.646Z,997.75
2017-09-15T10:14:24.677Z,997.78
2017-09-15T10:15:24.662Z,997.68
2017-09-15T10:16:24.688Z,997.72
2017-09-15T10:17:24.643Z,997.68
2017-09-15T10:18:24.637Z,997.73
2017-09-15T10:19:25.399Z,997.64
2017-09-15T10:20:24.948Z,997.67
2017-09-15T10:21:24.680Z,997.69
2017-09-15T10:22:24.596Z,997.63
2017-09-15T10:23:24.597Z,997.70
2017-09-15T10:24:24.574Z,997.66
2017-09-15T10:25:24.566Z,997.66
2017-09-15T10:26:24.928Z,997.63
2017-09-15T10:27:24.545Z,997.65
2017-09-15T10:28:24.530Z,997.64
2017-09-15T10:29:24.510Z,997.65
2017-09-15T10:30:24.498Z,997.60
2017-09-15T10:31:24.491Z,997.59
2017-09-15T10:32:24.917Z,997.58
2017-09-15T10:33:24.477Z,997.62
2017-09-15T10:34:24.457Z,997.60
2017-09-15T10:35:24.446Z,997.59
2017-09-15T10:36:24.439Z,997.58
2017-09-15T10:37:24.427Z,997.62
2017-09-15T10:38:24.860Z,997.66
2017-09-15T10:39:24.413Z,997.65
2017-09-15T10:40:24.396Z,997.63
2017-09-15T10:41:24.386Z,997.55
2017-09-15T10:42:24.374Z,997.51
2017-09-15T10:43:24.380Z,997.47
2017-09-15T10:44:24.390Z,997.53
2017-09-15T10:45:24.702Z,997.53
2017-09-15T10:46:24.340Z,997.47
2017-09-15T10:47:24.379Z,997.48
2017-09-15T10:48:24.329Z,997.57
2017-09-15T10:49:24.350Z,997.52
2017-09-15T10:50:24.329Z,997.52
2017-09-15T10:51:24.678Z,997.51
2017-09-15T10:52:24.274Z,997.51
2017-09-15T10:53:24.254Z,997.56
2017-09-15T10:54:24.266Z,997.48
2017-09-15T10:55:24.244Z,997.42
2017-09-15T10:56:24.237Z,997.45
2017-09-15T10:57:24.243Z,997.40
2017-09-15T10:58:24.225Z,997.44
2017-09-15T10:59:24.205Z,997.43
2017-09-15T11:00:24.188Z,997.39
2017-09-15T11:01:24.308Z,997.36
2017-09-15T11:02:24.844Z,997.35
2017-09-15T11:03:24.164Z,997.37
2017-09-15T11:04:24.146Z,997.41
2017-09-15T11:05:24.150Z,997.55
2017-09-15T11:06:25.182Z,997.47
2017-09-15T11:07:25.155Z,997.37
2017-09-15T11:08:24.104Z,997.36
2017-09-15T11:09:24.169Z,997.34
2017-09-15T11:10:24.194Z,997.40
2017-09-15T11:11:24.424Z,997.42
2017-09-15T11:12:24.073Z,997.42
2017-09-15T11:13:24.321Z,997.43
2017-09-15T11:14:24.081Z,997.40
2017-09-15T11:15:24.729Z,997.39
2017-09-15T11:16:24.026Z,997.44
2017-09-15T11:17:24.042Z,997.41
2017-09-15T11:18:24.000Z,997.40
2017-09-15T11:19:23.993Z,997.37
2017-09-15T11:20:23.991Z,997.42
2017-09-15T11:21:24.006Z,997.41
2017-09-15T11:22:23.961Z,997.42
2017-09-15T11:23:23.948Z,997.35
2017-09-15T11:24:23.939Z,997.46
2017-09-15T11:25:23.933Z,997.32
2017-09-15T11:26:24.343Z,997.31
2017-09-15T11:27:23.914Z,997.26
2017-09-15T11:28:23.899Z,997.37
2017-09-15T11:29:23.890Z,997.37
2017-09-15T11:30:23.876Z,997.35
2017-09-15T11:31:23.875Z,997.31
2017-09-15T11:32:24.213Z,997.32
2017-09-15T11:33:23.853Z,997.35
2017-09-15T11:34:23.839Z,997.29
2017-09-15T11:35:23.851Z,997.30
2017-09-15T11:36:23.815Z,997.29
2017-09-15T11:37:24.172Z,997.28
2017-09-15T11:38:24.720Z,997.26
2017-09-15T11:39:23.789Z,997.29
2017-09-15T11:40:23.840Z,997.35
2017-09-15T11:41:23.761Z,997.39
2017-09-15T11:42:23.753Z,997.40
2017-09-15T11:43:23.745Z,997.36
2017-09-15T11:44:24.037Z,997.37
2017-09-15T11:45:23.728Z,997.40
2017-09-15T11:46:23.719Z,997.41
2017-09-15T11:47:23.705Z,997.46
2017-09-15T11:48:23.727Z,997.46
2017-09-15T11:49:23.679Z,997.49
2017-09-15T11:50:24.247Z,997.45
2017-09-15T11:51:23.740Z,997.45
2017-09-15T11:52:23.645Z,997.48
2017-09-15T11:53:23.643Z,997.48
2017-09-15T11:54:23.636Z,997.42
2017-09-15T11:55:23.699Z,997.44
2017-09-15T11:56:23.964Z,997.43
2017-09-15T11:57:23.609Z,997.41
2017-09-15T11:58:23.637Z,997.42
2017-09-15T11:59:23.570Z,997.46
2017-09-15T12:00:23.569Z,997.43
2017-09-15T12:01:23.548Z,997.44
2017-09-15T12:02:24.139Z,997.45
2017-09-15T12:03:23.528Z,997.46
2017-09-15T12:04:23.523Z,997.42
2017-09-15T12:05:23.519Z,997.39
2017-09-15T12:06:23.499Z,997.39
2017-09-15T12:07:23.775Z,997.40
2017-09-15T12:08:23.475Z,997.34
2017-09-15T12:09:23.461Z,997.40
2017-09-15T12:10:23.459Z,997.35
2017-09-15T12:11:23.442Z,997.29
2017-09-15T12:12:23.428Z,997.33
2017-09-15T12:13:23.718Z,997.27
2017-09-15T12:14:23.412Z,997.31
2017-09-15T12:15:23.395Z,997.29
2017-09-15T12:16:23.384Z,997.30
2017-09-15T12:17:23.378Z,997.30
2017-09-15T12:18:23.367Z,997.31
2017-09-15T12:19:23.661Z,997.28
2017-09-15T12:20:23.964Z,997.27
2017-09-15T12:21:23.330Z,997.30
2017-09-15T12:22:23.320Z,997.29
2017-09-15T12:23:23.316Z,997.29
2017-09-15T12:24:23.298Z,997.30
2017-09-15T12:25:23.509Z,997.29
2017-09-15T12:26:23.287Z,997.28
2017-09-15T12:27:23.270Z,997.30
2017-09-15T12:28:23.262Z,997.24
2017-09-15T12:29:23.250Z,997.33
2017-09-15T12:30:23.237Z,997.21
2017-09-15T12:31:23.597Z,997.17